Serenade Of The Seas — C6FV8 — position and weather

sailwx.info

Track history (hours):
 
Tides and Currents Weather Stations Pressure Air Temp Water Temp Dewpoint Dewpoint Depression Visibility Wind Speed Wind Dir Waves Ship Positions

Serenade Of The Seas

Operator: Royal Caribbean Cruises Ltd

Last reported at 2016-Feb-10 03:14 UTC. Time now 2016-Feb-10 20:11 UTC.
Position N 16°20' W 062°22'.

Length 294 m; draft 8.5 m.

Type: Ship. MMSI: 311492000.

Date/timePositionNaut miles runAvg speedWind from/ knotsBaromVisibWave heightAir tempDewpointWater temp
2016-Feb-10 03:14N 16°20' W 062°22'812.0
2016-Feb-10 02:33N 16°27' W 062°27'1211.9
2016-Feb-10 01:33N 16°37' W 062°34'150 5.5
2016-Feb-08 22:10N 18°19' W 064°29'6 9.2
2016-Feb-08 21:33N 18°24' W 064°33'4 0.3
2016-Feb-08 11:27N 18°25' W 064°36'7 8.3
2016-Feb-08 10:33N 18°28' W 064°29'1413.8
2016-Feb-08 09:33N 18°37' W 064°40'  
2016-Feb-05 23:23N 26°10' W 079°45'1416.7
2016-Feb-05 22:33N 26°06' W 079°60'6 0.6
2016-Feb-05 11:33N 26°06' W 080°07'1313.2
2016-Feb-05 10:33N 26°08' W 079°53'  
2016-Feb-02 22:33N 17°20' W 062°11'1817.6
2016-Feb-02 21:33N 17°10' W 061°56'6 5.6
2016-Feb-02 20:31N 17°07' W 061°51'0 0.0
2016-Feb-02 19:31N 17°07' W 061°51'0 0.0
2016-Feb-02 18:25N 17°07' W 061°51'0 0.0
2016-Feb-02 17:31N 17°07' W 061°51'0 0.0
2016-Feb-02 16:31N 17°07' W 061°51'0 0.0
2016-Feb-02 15:31N 17°07' W 061°51'0 0.0
2016-Feb-02 14:31N 17°07' W 061°51'0 0.0
2016-Feb-02 13:31N 17°07' W 061°51'0 0.2
2016-Feb-02 12:33N 17°07' W 061°51'1211.8
2016-Feb-02 11:33N 17°11' W 062°03'2020.3
2016-Feb-02 10:34N 16°51' W 062°05'2322.7
2016-Feb-02 09:33N 16°28' W 062°04'  
Track history (hours):
 
Tides and Currents Weather Stations Pressure Air Temp Water Temp Dewpoint Dewpoint Depression Visibility Wind Speed Wind Dir Waves Ship Positions

Serenade Of The Seas

Operator: Royal Caribbean Cruises Ltd

Last reported at 2016-Feb-10 03:14 UTC. Time now 2016-Feb-10 20:11 UTC.
Position N 16°20' W 062°22'.

Length 294 m; draft 8.5 m.

Type: Ship. MMSI: 311492000.

Date/timePositionNaut miles runAvg speedWind from/ knotsBaromVisibWave heightAir tempDewpointWater temp
2016-Feb-10 03:14N 16°20' W 062°22'812.0
2016-Feb-10 02:33N 16°27' W 062°27'1211.9
2016-Feb-10 01:33N 16°37' W 062°34'150 5.5
2016-Feb-08 22:10N 18°19' W 064°29'6 9.2
2016-Feb-08 21:33N 18°24' W 064°33'4 0.3
2016-Feb-08 11:27N 18°25' W 064°36'7 8.3
2016-Feb-08 10:33N 18°28' W 064°29'1413.8
2016-Feb-08 09:33N 18°37' W 064°40'  
2016-Feb-05 23:23N 26°10' W 079°45'1416.7
2016-Feb-05 22:33N 26°06' W 079°60'6 0.6
2016-Feb-05 11:33N 26°06' W 080°07'1313.2
2016-Feb-05 10:33N 26°08' W 079°53'  
2016-Feb-02 22:33N 17°20' W 062°11'1817.6
2016-Feb-02 21:33N 17°10' W 061°56'6 5.6
2016-Feb-02 20:31N 17°07' W 061°51'0 0.0
2016-Feb-02 19:31N 17°07' W 061°51'0 0.0
2016-Feb-02 18:25N 17°07' W 061°51'0 0.0
2016-Feb-02 17:31N 17°07' W 061°51'0 0.0
2016-Feb-02 16:31N 17°07' W 061°51'0 0.0
2016-Feb-02 15:31N 17°07' W 061°51'0 0.0
2016-Feb-02 14:31N 17°07' W 061°51'0 0.0
2016-Feb-02 13:31N 17°07' W 061°51'0 0.2
2016-Feb-02 12:33N 17°07' W 061°51'1211.8
2016-Feb-02 11:33N 17°11' W 062°03'2020.3
2016-Feb-02 10:34N 16°51' W 062°05'2322.7
2016-Feb-02 09:33N 16°28' W 062°04'  

Dump ship's entire track history